CheckWX is a tool to help pilots better visualize weather data.  It is not intended as a substitute for an official pre-flight weather briefing.

12:29:57 UTC

KOXI METAR
Starke County Airport
Knox, Indiana, USA
Current

40 mins ago

KOXI 261150Z AUTO 36005KT 10SM CLR M04/M11 A3043 RMK AO1
Observed
Mar-26 @ 11:50 UTC
Wind
  • 360° at 5 KTS
Visibility
10 SM
Flight Rules
VFR
Cloud Levels
  • Clear skies
Temperature
-4°C / 25°F
Dewpoint
-11°C / 12°F
Humidity
59%
Altimeter
30.43" Hg
Pressure
1030.51 hPa
Previous

55 mins ago

KOXI 261135Z AUTO 36004KT 10SM CLR M04/M11 A3042 RMK AO1
Observed
Mar-26 @ 11:35 UTC
Wind
  • 360° at 4 KTS
Visibility
10 SM
Flight Rules
VFR
Cloud Levels
  • Clear skies
Temperature
-4°C / 25°F
Dewpoint
-11°C / 12°F
Humidity
59%
Altimeter
30.42" Hg
Pressure
1030.11 hPa
Previous

1 hour ago

KOXI 261115Z AUTO 36007KT 10SM CLR M05/M10 A3041 RMK AO1
Observed
Mar-26 @ 11:15 UTC
Wind
  • 360° at 7 KTS
Visibility
10 SM
Flight Rules
VFR
Cloud Levels
  • Clear skies
Temperature
-5°C / 23°F
Dewpoint
-10°C / 14°F
Humidity
68%
Altimeter
30.41" Hg
Pressure
1029.81 hPa